createdAt,value
2022-12-01T00:01:06.753Z,102613.13
2022-12-01T00:03:33.744Z,102614.53
2022-12-01T00:06:01.246Z,102608.91
2022-12-01T00:08:28.066Z,102613.69
2022-12-01T00:10:54.662Z,102614.53
2022-12-01T00:13:21.551Z,102614.53
2022-12-01T00:15:48.119Z,102612.28
2022-12-01T00:18:14.748Z,102610.59
2022-12-01T00:20:41.691Z,102613.41
2022-12-01T00:23:08.460Z,102605.81
2022-12-01T00:25:35.147Z,102609.47
2022-12-01T00:28:01.752Z,102603.56
2022-12-01T00:30:28.511Z,102594.53
2022-12-01T00:32:55.168Z,102603.84
2022-12-01T00:35:21.747Z,102608.34
2022-12-01T00:37:48.383Z,102598.47
2022-12-01T00:40:15.045Z,102594.81
2022-12-01T00:42:41.868Z,102596.50
2022-12-01T00:45:08.795Z,102588.91
2022-12-01T00:47:35.968Z,102590.31
2022-12-01T00:50:03.012Z,102589.16
2022-12-01T00:52:29.663Z,102587.47
2022-12-01T00:54:56.343Z,102589.44
2022-12-01T00:57:23.024Z,102590.84
2022-12-01T00:59:50.068Z,102586.91
2022-12-01T01:02:17.029Z,102582.41
2022-12-01T01:04:43.654Z,102577.91
2022-12-01T01:07:10.419Z,102580.72
2022-12-01T01:09:37.242Z,102576.19
2022-12-01T01:12:03.940Z,102579.03
2022-12-01T01:14:30.503Z,102566.06
2022-12-01T01:16:57.174Z,102579.31
2022-12-01T01:19:24.315Z,102571.44
2022-12-01T01:21:50.994Z,102578.75
2022-12-01T01:24:17.703Z,102574.50
2022-12-01T01:26:44.410Z,102585.22
2022-12-01T01:29:11.031Z,102580.97
2022-12-01T01:31:37.985Z,102582.38
2022-12-01T01:34:05.057Z,102585.47
2022-12-01T01:36:31.941Z,102587.16
2022-12-01T01:38:58.561Z,102594.50
2022-12-01T01:41:25.333Z,102597.84
2022-12-01T01:43:53.460Z,102593.63
2022-12-01T01:46:24.452Z,102602.06
2022-12-01T01:48:51.105Z,102601.78
2022-12-01T01:51:19.288Z,102611.31
2022-12-01T01:53:49.643Z,102601.44
2022-12-01T01:56:16.863Z,102605.94
2022-12-01T01:58:44.248Z,102593.00
2022-12-01T02:01:10.943Z,102595.81
2022-12-01T02:03:38.344Z,102593.28
2022-12-01T02:06:06.561Z,102601.97
2022-12-01T02:08:34.569Z,102596.66
2022-12-01T02:11:10.427Z,102600.59
2022-12-01T02:13:51.592Z,102598.03
2022-12-01T02:16:39.637Z,102601.41
2022-12-01T02:19:25.195Z,102598.88
2022-12-01T02:22:03.744Z,102592.69
2022-12-01T02:24:30.311Z,102589.03
2022-12-01T02:27:05.084Z,102591.81
2022-12-01T02:29:31.667Z,102594.91
2022-12-01T02:32:07.321Z,102592.34
2022-12-01T02:34:41.464Z,102590.94
2022-12-01T02:37:16.508Z,102594.59
2022-12-01T02:39:49.008Z,102593.44
2022-12-01T02:42:50.061Z,102591.75
2022-12-01T02:45:22.601Z,102592.31
2022-12-01T02:47:52.564Z,102594.53
2022-12-01T02:50:20.625Z,102589.75
2022-12-01T02:52:47.470Z,102588.03
2022-12-01T02:55:14.118Z,102586.63
2022-12-01T02:57:40.700Z,102588.03
2022-12-01T03:00:07.710Z,102586.06
2022-12-01T03:03:00.559Z,102586.88
2022-12-01T03:05:30.296Z,102575.34
2022-12-01T03:07:57.601Z,102580.09
2022-12-01T03:10:27.326Z,102572.22
2022-12-01T03:12:56.723Z,102568.28
2022-12-01T03:15:26.236Z,102575.88
2022-12-01T03:17:58.850Z,102577.81
2022-12-01T03:20:35.248Z,102576.44
2022-12-01T03:23:08.954Z,102578.06
2022-12-01T03:25:36.764Z,102576.38
2022-12-01T03:28:22.138Z,102569.59
2022-12-01T03:30:52.844Z,102569.00
2022-12-01T03:33:24.114Z,102561.69
2022-12-01T03:36:06.014Z,102570.41
2022-12-01T03:38:37.711Z,102566.16
2022-12-01T03:41:12.507Z,102564.75
2022-12-01T03:43:42.192Z,102561.66
2022-12-01T03:46:14.796Z,102563.88
2022-12-01T03:48:42.081Z,102566.09
2022-12-01T03:51:27.562Z,102566.38
2022-12-01T03:54:08.266Z,102566.91
2022-12-01T03:56:38.828Z,102570.28
2022-12-01T03:59:08.871Z,102580.66
2022-12-01T04:01:36.157Z,102578.97
2022-12-01T04:04:12.717Z,102570.53
2022-12-01T04:06:40.566Z,102576.16
2022-12-01T04:09:07.142Z,102576.41
2022-12-01T04:11:52.137Z,102585.09
2022-12-01T04:14:18.727Z,102595.47
2022-12-01T04:16:45.403Z,102594.31
2022-12-01T04:19:11.983Z,102596.28
2022-12-01T04:21:38.595Z,102593.78
2022-12-01T04:24:05.313Z,102597.09
2022-12-01T04:26:35.927Z,102610.31
2022-12-01T04:29:08.486Z,102605.81
2022-12-01T04:31:35.719Z,102610.84
2022-12-01T04:34:02.387Z,102610.84
2022-12-01T04:36:33.380Z,102609.13
2022-12-01T04:39:00.079Z,102610.53
2022-12-01T04:41:26.895Z,102614.44
2022-12-01T04:43:54.882Z,102622.31
2022-12-01T04:46:21.901Z,102623.97
2022-12-01T04:48:48.699Z,102625.91
2022-12-01T04:51:15.300Z,102623.38
2022-12-01T04:53:42.043Z,102632.91
2022-12-01T04:56:08.657Z,102632.34
2022-12-01T04:58:37.950Z,102633.69
2022-12-01T05:01:06.162Z,102637.09
2022-12-01T05:03:33.064Z,102632.59
2022-12-01T05:06:07.689Z,102638.75
2022-12-01T05:08:36.474Z,102631.69
2022-12-01T05:11:03.233Z,102630.84
2022-12-01T05:13:29.854Z,102632.78
2022-12-01T05:16:16.801Z,102634.19
2022-12-01T05:18:43.460Z,102630.84
2022-12-01T05:21:11.199Z,102634.19
2022-12-01T05:23:38.961Z,102627.78
2022-12-01T05:26:06.718Z,102621.97
2022-12-01T05:28:33.710Z,102619.22
2022-12-01T05:31:00.363Z,102619.31
2022-12-01T05:33:27.619Z,102629.19
2022-12-01T05:35:54.734Z,102622.75
2022-12-01T05:38:21.584Z,102633.19
2022-12-01T05:40:52.292Z,102629.28
2022-12-01T05:43:21.655Z,102631.28
2022-12-01T05:45:52.059Z,102632.41
2022-12-01T05:48:22.335Z,102635.28
2022-12-01T05:50:48.917Z,102641.19
2022-12-01T05:53:15.808Z,102630.00
2022-12-01T05:55:42.591Z,102641.25
2022-12-01T05:58:09.989Z,102642.44
2022-12-01T06:00:42.281Z,102650.06
2022-12-01T06:03:12.076Z,102647.28
2022-12-01T06:05:38.778Z,102649.28
2022-12-01T06:08:05.539Z,102649.56
2022-12-01T06:10:32.177Z,102651.56
2022-12-01T06:12:58.781Z,102648.78
2022-12-01T06:15:25.349Z,102652.75
2022-12-01T06:17:51.941Z,102651.94
2022-12-01T06:20:18.669Z,102655.88
2022-12-01T06:22:45.262Z,102658.16
2022-12-01T06:25:11.942Z,102658.19
2022-12-01T06:27:38.616Z,102659.34
2022-12-01T06:30:05.556Z,102654.59
2022-12-01T06:32:32.160Z,102656.84
2022-12-01T06:34:58.868Z,102644.75
2022-12-01T06:37:26.838Z,102650.41
2022-12-01T06:39:53.459Z,102654.34
2022-12-01T06:42:20.039Z,102648.16
2022-12-01T06:44:46.602Z,102654.13
2022-12-01T06:47:13.356Z,102666.53
2022-12-01T06:49:39.970Z,102654.72
2022-12-01T06:52:06.604Z,102642.34
2022-12-01T06:54:33.701Z,102650.22
2022-12-01T06:57:00.369Z,102642.06
2022-12-01T06:59:27.353Z,102649.13
2022-12-01T07:01:59.834Z,102652.47
2022-12-01T07:04:27.717Z,102654.75
2022-12-01T07:06:54.609Z,102652.50
2022-12-01T07:09:22.183Z,102658.72
2022-12-01T07:11:49.138Z,102662.06
2022-12-01T07:14:22.633Z,102665.47
2022-12-01T07:16:49.585Z,102667.19
2022-12-01T07:19:16.555Z,102665.75
2022-12-01T07:21:43.555Z,102671.13
2022-12-01T07:24:10.520Z,102679.84
2022-12-01T07:26:39.241Z,102683.22
2022-12-01T07:29:06.097Z,102679.88
2022-12-01T07:31:33.351Z,102680.16
2022-12-01T07:34:00.036Z,102687.75
2022-12-01T07:36:26.657Z,102696.16
2022-12-01T07:38:53.280Z,102692.72
2022-12-01T07:41:20.238Z,102696.69
2022-12-01T07:43:48.279Z,102703.44
2022-12-01T07:46:23.253Z,102700.09
2022-12-01T07:48:51.180Z,102705.72
2022-12-01T07:51:17.983Z,102709.41
2022-12-01T07:53:47.070Z,102714.19
2022-12-01T07:56:13.858Z,102710.78
2022-12-01T07:58:42.892Z,102705.44
2022-12-01T08:01:10.672Z,102705.72
2022-12-01T08:03:37.384Z,102695.81
2022-12-01T08:06:04.844Z,102701.47
2022-12-01T08:08:44.586Z,102706.53
2022-12-01T08:11:12.547Z,102702.28
2022-12-01T08:13:39.603Z,102700.31
2022-12-01T08:16:06.721Z,102711.88
2022-12-01T08:18:38.606Z,102709.06
2022-12-01T08:21:06.092Z,102723.41
2022-12-01T08:23:33.211Z,102722.28
2022-12-01T08:26:04.290Z,102727.06
2022-12-01T08:28:40.406Z,102719.75
2022-12-01T08:31:17.078Z,102721.44
2022-12-01T08:33:43.840Z,102726.50
2022-12-01T08:36:10.505Z,102724.22
2022-12-01T08:38:39.304Z,102728.16
2022-12-01T08:41:07.430Z,102730.97
2022-12-01T08:43:56.467Z,102730.13
2022-12-01T08:46:20.888Z,102728.72
2022-12-01T08:48:47.532Z,102726.19
2022-12-01T08:51:15.351Z,102725.63
2022-12-01T08:53:46.394Z,102719.63
2022-12-01T08:56:15.605Z,102732.59
2022-12-01T08:58:42.328Z,102730.34
2022-12-01T09:01:10.178Z,102728.91
2022-12-01T09:03:37.369Z,102723.28
2022-12-01T09:06:20.365Z,102722.47
2022-12-01T09:08:47.402Z,102720.75
2022-12-01T09:11:15.332Z,102719.91
2022-12-01T09:13:42.265Z,102714.53
2022-12-01T09:16:13.525Z,102717.34
2022-12-01T09:18:40.723Z,102717.94
2022-12-01T09:21:10.960Z,102722.47
2022-12-01T09:23:37.727Z,102724.97
2022-12-01T09:26:04.336Z,102736.81
2022-12-01T09:28:41.548Z,102727.78
2022-12-01T09:31:09.429Z,102734.84
2022-12-01T09:33:36.873Z,102732.03
2022-12-01T09:36:04.696Z,102742.16
2022-12-01T09:38:40.432Z,102739.34
2022-12-01T09:41:21.063Z,102741.03
2022-12-01T09:43:50.601Z,102745.56
2022-12-01T09:46:21.613Z,102746.41
2022-12-01T09:48:49.781Z,102747.50
2022-12-01T09:51:17.814Z,102754.00
2022-12-01T09:53:45.070Z,102754.00
2022-12-01T09:56:19.189Z,102751.19
2022-12-01T09:58:46.206Z,102758.78
2022-12-01T10:01:17.688Z,102751.19
2022-12-01T10:03:50.001Z,102765.25
2022-12-01T10:06:28.823Z,102763.84
2022-12-01T10:08:58.761Z,102763.84
2022-12-01T10:11:28.217Z,102768.63
2022-12-01T10:13:54.904Z,102755.66
2022-12-01T10:16:28.718Z,102764.09
2022-12-01T10:19:01.600Z,102767.78
2022-12-01T10:21:49.075Z,102762.41
2022-12-01T10:24:18.771Z,102757.91
2022-12-01T10:27:08.438Z,102757.34
2022-12-01T10:29:47.569Z,102766.91
2022-12-01T10:32:23.342Z,102758.72
2022-12-01T10:34:49.976Z,102770.25
2022-12-01T10:37:24.497Z,102762.09
2022-12-01T10:39:52.636Z,102756.72
2022-12-01T10:42:24.835Z,102745.47
2022-12-01T10:44:54.611Z,102746.59
2022-12-01T10:47:22.954Z,102744.06
2022-12-01T10:49:49.945Z,102733.38
2022-12-01T10:52:42.836Z,102735.31
2022-12-01T10:55:29.224Z,102733.88
2022-12-01T10:57:57.378Z,102723.19
2022-12-01T11:00:51.385Z,102718.13
2022-12-01T11:03:23.217Z,102714.72
2022-12-01T11:05:54.967Z,102704.88
2022-12-01T11:08:44.648Z,102707.09
2022-12-01T11:11:40.815Z,102702.03
2022-12-01T11:14:17.231Z,102693.84
2022-12-01T11:16:45.393Z,102700.88
2022-12-01T11:19:27.828Z,102687.34
2022-12-01T11:21:56.392Z,102692.66
2022-12-01T11:24:26.096Z,102685.34
2022-12-01T11:26:52.733Z,102682.25
2022-12-01T11:29:36.204Z,102683.66
2022-12-01T11:32:15.478Z,102681.09
2022-12-01T11:34:48.681Z,102680.50
2022-12-01T11:37:17.317Z,102677.13
2022-12-01T11:39:44.962Z,102687.78
2022-12-01T11:42:14.313Z,102677.94
2022-12-01T11:44:51.713Z,102672.03
2022-12-01T11:47:24.369Z,102666.94
2022-12-01T11:49:58.544Z,102663.56
2022-12-01T11:52:25.369Z,102648.31
2022-12-01T11:54:56.040Z,102642.97
2022-12-01T11:57:37.662Z,102638.72
2022-12-01T12:00:18.127Z,102627.47
2022-12-01T12:03:05.015Z,102628.03
2022-12-01T12:05:41.980Z,102618.19
2022-12-01T12:08:14.790Z,102624.91
2022-12-01T12:10:44.207Z,102617.84
2022-12-01T12:13:10.933Z,102616.19
2022-12-01T12:15:40.412Z,102614.50
2022-12-01T12:18:07.348Z,102611.09
2022-12-01T12:20:43.907Z,102608.56
2022-12-01T12:23:10.545Z,102614.19
2022-12-01T12:25:37.151Z,102611.66
2022-12-01T12:28:16.510Z,102606.88
2022-12-01T12:30:51.954Z,102606.88
2022-12-01T12:33:36.465Z,102604.88
2022-12-01T12:36:29.978Z,102604.88
2022-12-01T12:39:12.170Z,102597.81
2022-12-01T12:41:46.566Z,102598.97
2022-12-01T12:44:24.117Z,102599.22
2022-12-01T12:46:56.849Z,102591.03
2022-12-01T12:49:29.060Z,102583.75
2022-12-01T12:52:08.438Z,102592.19
2022-12-01T12:54:41.910Z,102599.19
2022-12-01T12:57:21.148Z,102586.53
2022-12-01T13:00:00.214Z,102588.50
2022-12-01T13:02:27.328Z,102588.50
2022-12-01T13:05:07.098Z,102590.44
2022-12-01T13:07:33.753Z,102588.50
2022-12-01T13:10:07.253Z,102585.09
2022-12-01T13:12:39.572Z,102586.22
2022-12-01T13:15:06.205Z,102578.91
2022-12-01T13:17:41.841Z,102587.34
2022-12-01T13:20:19.793Z,102589.84
2022-12-01T13:22:47.930Z,102584.50
2022-12-01T13:25:16.717Z,102583.91
2022-12-01T13:27:44.220Z,102584.19
2022-12-01T13:30:19.388Z,102584.19
2022-12-01T13:32:46.684Z,102578.84
2022-12-01T13:35:19.423Z,102583.03
2022-12-01T13:37:46.202Z,102577.09
2022-12-01T13:40:23.959Z,102573.72
2022-12-01T13:42:56.691Z,102578.75
2022-12-01T13:45:23.819Z,102583.50
2022-12-01T13:47:52.369Z,102572.81
2022-12-01T13:50:39.351Z,102581.50
2022-12-01T13:53:25.390Z,102568.63
2022-12-01T13:55:59.490Z,102568.03
2022-12-01T13:58:47.470Z,102569.13
2022-12-01T14:01:20.585Z,102574.22
2022-12-01T14:04:01.305Z,102571.69
2022-12-01T14:06:38.676Z,102578.94
2022-12-01T14:09:07.452Z,102576.41
2022-12-01T14:11:34.907Z,102568.53
2022-12-01T14:14:07.388Z,102576.94
2022-12-01T14:16:53.547Z,102572.69
2022-12-01T14:19:38.964Z,102573.47
2022-12-01T14:22:06.559Z,102572.31
2022-12-01T14:24:43.887Z,102574.00
2022-12-01T14:27:14.126Z,102573.41
2022-12-01T14:29:48.193Z,102570.59
2022-12-01T14:32:18.023Z,102577.91
2022-12-01T14:34:44.616Z,102577.91
2022-12-01T14:37:18.874Z,102582.69
2022-12-01T14:40:04.001Z,102580.72
2022-12-01T14:42:51.374Z,102573.69
2022-12-01T14:45:20.809Z,102575.91
2022-12-01T14:47:51.232Z,102570.59
2022-12-01T14:50:46.792Z,102578.16
2022-12-01T14:53:16.685Z,102575.59
2022-12-01T14:55:48.166Z,102571.09
2022-12-01T14:58:17.676Z,102564.06
2022-12-01T15:01:04.927Z,102569.69
2022-12-01T15:03:51.576Z,102567.13
2022-12-01T15:06:19.590Z,102564.88
2022-12-01T15:09:04.198Z,102565.97
2022-12-01T15:11:33.668Z,102566.22
2022-12-01T15:14:00.317Z,102565.66
2022-12-01T15:16:29.409Z,102566.78
2022-12-01T15:18:56.389Z,102564.22
2022-12-01T15:21:27.583Z,102560.84
2022-12-01T15:24:01.565Z,102564.75
2022-12-01T15:26:32.732Z,102568.38
2022-12-01T15:29:11.288Z,102572.28
2022-12-01T15:31:38.503Z,102561.34
2022-12-01T15:34:05.694Z,102564.16
2022-12-01T15:36:32.496Z,102568.06
2022-12-01T15:39:06.889Z,102567.47
2022-12-01T15:41:34.629Z,102575.88
2022-12-01T15:44:03.833Z,102576.16
2022-12-01T15:46:37.305Z,102572.75
2022-12-01T15:49:30.256Z,102569.34
2022-12-01T15:52:17.175Z,102570.22
2022-12-01T15:54:47.480Z,102561.78
2022-12-01T15:57:18.787Z,102564.59
2022-12-01T15:59:47.064Z,102551.97
2022-12-01T16:02:13.721Z,102563.19
2022-12-01T16:04:40.443Z,102558.94
2022-12-01T16:07:08.898Z,102552.75
2022-12-01T16:09:40.202Z,102557.50
2022-12-01T16:12:09.544Z,102555.81
2022-12-01T16:14:36.752Z,102553.53
2022-12-01T16:17:04.573Z,102550.16
2022-12-01T16:19:32.465Z,102554.91
2022-12-01T16:22:11.354Z,102548.97
2022-12-01T16:24:43.176Z,102554.88
2022-12-01T16:27:20.517Z,102555.38
2022-12-01T16:29:58.136Z,102559.03
2022-12-01T16:32:27.901Z,102559.56
2022-12-01T16:34:54.503Z,102555.31
2022-12-01T16:37:22.308Z,102557.28
2022-12-01T16:39:49.445Z,102562.31
2022-12-01T16:42:17.493Z,102573.78
2022-12-01T16:44:45.905Z,102565.66
2022-12-01T16:47:23.251Z,102567.59
2022-12-01T16:49:50.149Z,102559.44
2022-12-01T16:55:03.967Z,102565.59
2022-12-01T16:57:30.679Z,102569.44
2022-12-01T16:59:57.257Z,102558.78
2022-12-01T17:02:23.935Z,102570.50
2022-12-01T17:04:50.954Z,102577.72
2022-12-01T17:07:18.120Z,102579.19
2022-12-01T17:09:44.776Z,102588.94
2022-12-01T17:12:11.346Z,102586.66
2022-12-01T17:14:38.206Z,102590.88
2022-12-01T17:17:04.812Z,102585.56
2022-12-01T17:19:31.434Z,102592.53
2022-12-01T17:21:58.426Z,102596.41
2022-12-01T17:24:26.110Z,102599.50
2022-12-01T17:26:52.793Z,102596.94
2022-12-01T17:29:19.585Z,102599.16
2022-12-01T17:31:58.912Z,102605.59
2022-12-01T17:34:25.880Z,102596.03
2022-12-01T17:36:52.490Z,102606.38
2022-12-01T17:39:19.691Z,102607.50
2022-12-01T17:41:46.315Z,102605.53
2022-12-01T17:44:13.124Z,102599.34
2022-12-01T17:46:41.887Z,102608.00
2022-12-01T17:49:10.796Z,102603.78
2022-12-01T17:51:37.994Z,102604.88
2022-12-01T17:54:04.831Z,102606.84
2022-12-01T17:56:31.723Z,102609.63
2022-12-01T17:58:58.320Z,102609.31
2022-12-01T18:01:29.954Z,102612.34
2022-12-01T18:03:57.555Z,102608.72
2022-12-01T18:06:25.738Z,102615.69
2022-12-01T18:08:57.613Z,102613.75
2022-12-01T18:11:30.990Z,102611.19
2022-12-01T18:13:58.368Z,102615.94
2022-12-01T18:16:26.380Z,102606.09
2022-12-01T18:18:53.599Z,102607.22
2022-12-01T18:21:21.335Z,102614.75
2022-12-01T18:23:51.524Z,102610.25
2022-12-01T18:26:19.242Z,102614.44
2022-12-01T18:28:45.898Z,102616.63
2022-12-01T18:31:14.098Z,102614.69
2022-12-01T18:33:42.100Z,102605.34
2022-12-01T18:36:12.664Z,102614.34
2022-12-01T18:38:40.446Z,102606.81
2022-12-01T18:41:07.548Z,102608.13
2022-12-01T18:43:34.196Z,102605.28
2022-12-01T18:46:02.778Z,102608.41
2022-12-01T18:48:30.965Z,102604.44
2022-12-01T18:51:01.970Z,102608.09
2022-12-01T18:53:28.661Z,102608.34
2022-12-01T18:55:55.290Z,102610.03
2022-12-01T18:58:21.991Z,102610.03
2022-12-01T19:00:48.730Z,102609.69
2022-12-01T19:03:16.057Z,102612.75
2022-12-01T19:05:45.531Z,102615.56
2022-12-01T19:08:13.441Z,102612.75
2022-12-01T19:10:40.218Z,102602.03
2022-12-01T19:13:06.874Z,102618.03
2022-12-01T19:15:36.069Z,102611.22
2022-12-01T19:18:02.830Z,102614.63
2022-12-01T19:20:29.521Z,102608.16
2022-12-01T19:22:56.098Z,102600.53
2022-12-01T19:25:22.816Z,102606.75
2022-12-01T19:27:51.324Z,102610.78
2022-12-01T19:30:17.956Z,102603.59
2022-12-01T19:32:44.836Z,102602.75
2022-12-01T19:35:11.465Z,102602.75
2022-12-01T19:37:38.048Z,102597.06
2022-12-01T19:40:04.803Z,102601.53
2022-12-01T19:42:31.410Z,102599.88
2022-12-01T19:44:58.764Z,102598.16
2022-12-01T19:47:25.393Z,102604.63
2022-12-01T19:49:51.982Z,102610.22
2022-12-01T19:52:18.573Z,102608.16
2022-12-01T19:54:45.189Z,102608.16
2022-12-01T19:57:11.806Z,102612.28
2022-12-01T19:59:38.411Z,102606.69
2022-12-01T20:02:05.341Z,102611.44
2022-12-01T20:04:32.245Z,102610.63
2022-12-01T20:06:58.893Z,102610.63
2022-12-01T20:09:29.934Z,102604.94
2022-12-01T20:11:56.523Z,102603.81
2022-12-01T20:14:23.146Z,102613.56
2022-12-01T20:16:50.022Z,102607.97
2022-12-01T20:19:16.702Z,102603.56
2022-12-01T20:21:44.431Z,102606.03
2022-12-01T20:24:22.232Z,102599.81
2022-12-01T20:26:50.060Z,102599.47
2022-12-01T20:29:21.815Z,102610.16
2022-12-01T20:31:49.152Z,102601.44
2022-12-01T20:34:17.893Z,102604.84
2022-12-01T20:36:44.580Z,102599.47
2022-12-01T20:39:13.164Z,102599.25
2022-12-01T20:41:40.794Z,102607.03
2022-12-01T20:44:08.485Z,102607.31
2022-12-01T20:46:35.971Z,102608.22
2022-12-01T20:49:02.956Z,102604.94
2022-12-01T20:51:33.455Z,102606.25
2022-12-01T20:54:26.657Z,102611.09
2022-12-01T20:56:47.695Z,102610.34
2022-12-01T20:59:14.451Z,102609.94
2022-12-01T21:01:41.286Z,102616.81
2022-12-01T21:04:09.014Z,102613.59
2022-12-01T21:06:35.733Z,102606.97
2022-12-01T21:09:03.559Z,102615.72
2022-12-01T21:11:53.284Z,102603.75
2022-12-01T21:14:24.641Z,102605.50
2022-12-01T21:16:55.212Z,102607.28
2022-12-01T21:19:24.694Z,102608.22
2022-12-01T21:21:51.500Z,102607.16
2022-12-01T21:24:19.915Z,102603.59
2022-12-01T21:26:59.004Z,102606.22
2022-12-01T21:29:28.301Z,102600.41
2022-12-01T21:31:58.805Z,102600.22
2022-12-01T21:34:26.862Z,102599.22
2022-12-01T21:36:56.217Z,102603.75
2022-12-01T21:39:25.133Z,102597.13
2022-12-01T21:41:55.146Z,102588.78
2022-12-01T21:44:22.660Z,102586.88
2022-12-01T21:46:52.137Z,102578.25
2022-12-01T21:49:21.456Z,102583.06
2022-12-01T21:51:50.435Z,102579.22
2022-12-01T21:54:20.705Z,102586.59
2022-12-01T21:56:58.719Z,102582.13
2022-12-01T21:59:25.561Z,102593.13
2022-12-01T22:01:54.981Z,102587.31
2022-12-01T22:04:23.500Z,102572.78
2022-12-01T22:06:53.228Z,102570.09
2022-12-01T22:09:22.877Z,102570.16
2022-12-01T22:11:52.348Z,102577.44
2022-12-01T22:14:21.293Z,102571.88
2022-12-01T22:16:51.962Z,102571.09
2022-12-01T22:19:22.761Z,102577.03
2022-12-01T22:21:50.414Z,102577.03
2022-12-01T22:24:27.577Z,102584.66
2022-12-01T22:27:03.103Z,102591.19
2022-12-01T22:29:32.137Z,102581.69
2022-12-01T22:32:02.096Z,102580.03
2022-12-01T22:34:28.875Z,102574.44
2022-12-01T22:36:55.676Z,102579.25
2022-12-01T22:39:30.196Z,102572.81
2022-12-01T22:41:59.924Z,102571.16
2022-12-01T22:44:28.217Z,102570.34
2022-12-01T22:46:58.467Z,102576.84
2022-12-01T22:49:25.663Z,102579.69
2022-12-01T22:51:56.954Z,102578.03
2022-12-01T22:54:33.325Z,102577.47
2022-12-01T22:57:03.584Z,102574.72
2022-12-01T22:59:42.943Z,102579.78
2022-12-01T23:02:20.727Z,102570.84
2022-12-01T23:04:49.571Z,102573.94
2022-12-01T23:07:26.399Z,102575.94
2022-12-01T23:09:53.234Z,102575.38
2022-12-01T23:12:22.161Z,102570.31
2022-12-01T23:14:50.739Z,102577.09
2022-12-01T23:17:21.119Z,102568.09
2022-12-01T23:19:49.369Z,102575.97
2022-12-01T23:22:17.034Z,102567.00
2022-12-01T23:24:45.043Z,102567.28
2022-12-01T23:27:12.089Z,102561.94
2022-12-01T23:29:38.962Z,102563.09
2022-12-01T23:32:06.045Z,102560.59
2022-12-01T23:34:34.183Z,102564.53
2022-12-01T23:37:01.282Z,102563.13
2022-12-01T23:39:31.371Z,102559.75
2022-12-01T23:41:58.912Z,102558.38
2022-12-01T23:44:29.126Z,102556.94
2022-12-01T23:46:57.681Z,102548.81
2022-12-01T23:49:27.831Z,102549.63
2022-12-01T23:51:55.864Z,102548.25
2022-12-01T23:54:28.366Z,102553.31
2022-12-01T23:56:56.342Z,102548.28
2022-12-01T23:59:23.202Z,102544.03
